sensor_id;sensor_type;location;lat;lon;timestamp;P1;durP1;ratioP1;P2;durP2;ratioP2
62179;SDS011;48172;53.374;10.722;2022-10-22T00:02:17;21.48;;;17.02;;
62179;SDS011;48172;53.374;10.722;2022-10-22T00:04:46;20.73;;;16.30;;
62179;SDS011;48172;53.374;10.722;2022-10-22T00:07:14;21.23;;;16.35;;
62179;SDS011;48172;53.374;10.722;2022-10-22T00:09:44;20.40;;;16.48;;
62179;SDS011;48172;53.374;10.722;2022-10-22T00:12:10;21.10;;;16.55;;
62179;SDS011;48172;53.374;10.722;2022-10-22T00:14:37;19.48;;;16.08;;
62179;SDS011;48172;53.374;10.722;2022-10-22T00:17:05;20.77;;;15.98;;
62179;SDS011;48172;53.374;10.722;2022-10-22T00:19:36;20.20;;;15.98;;
62179;SDS011;48172;53.374;10.722;2022-10-22T00:22:03;21.45;;;16.50;;
62179;SDS011;48172;53.374;10.722;2022-10-22T00:24:33;19.67;;;15.68;;
62179;SDS011;48172;53.374;10.722;2022-10-22T00:27:00;19.88;;;16.02;;
62179;SDS011;48172;53.374;10.722;2022-10-22T00:29:28;18.27;;;14.45;;
62179;SDS011;48172;53.374;10.722;2022-10-22T00:31:54;18.95;;;15.32;;
62179;SDS011;48172;53.374;10.722;2022-10-22T00:34:26;18.67;;;14.32;;
62179;SDS011;48172;53.374;10.722;2022-10-22T00:36:53;19.98;;;15.20;;
62179;SDS011;48172;53.374;10.722;2022-10-22T00:39:21;18.70;;;14.73;;
62179;SDS011;48172;53.374;10.722;2022-10-22T00:41:49;18.08;;;13.88;;
62179;SDS011;48172;53.374;10.722;2022-10-22T00:47:21;18.75;;;14.57;;
62179;SDS011;48172;53.374;10.722;2022-10-22T00:49:49;18.38;;;14.35;;
62179;SDS011;48172;53.374;10.722;2022-10-22T00:52:18;17.75;;;13.95;;
62179;SDS011;48172;53.374;10.722;2022-10-22T00:54:45;17.17;;;13.73;;
62179;SDS011;48172;53.374;10.722;2022-10-22T00:57:11;17.48;;;14.38;;
62179;SDS011;48172;53.374;10.722;2022-10-22T00:59:38;17.05;;;13.85;;
62179;SDS011;48172;53.374;10.722;2022-10-22T01:02:04;17.23;;;13.77;;
62179;SDS011;48172;53.374;10.722;2022-10-22T01:04:31;16.48;;;13.20;;
62179;SDS011;48172;53.374;10.722;2022-10-22T01:06:57;16.65;;;13.95;;
62179;SDS011;48172;53.374;10.722;2022-10-22T01:12:13;15.20;;;12.50;;
62179;SDS011;48172;53.374;10.722;2022-10-22T01:17:22;16.88;;;13.40;;
62179;SDS011;48172;53.374;10.722;2022-10-22T01:22:54;18.33;;;14.07;;
62179;SDS011;48172;53.374;10.722;2022-10-22T01:31:19;16.15;;;12.68;;
62179;SDS011;48172;53.374;10.722;2022-10-22T01:33:48;16.10;;;12.65;;
62179;SDS011;48172;53.374;10.722;2022-10-22T01:36:18;15.35;;;12.65;;
62179;SDS011;48172;53.374;10.722;2022-10-22T01:38:45;15.10;;;12.95;;
62179;SDS011;48172;53.374;10.722;2022-10-22T01:41:14;15.48;;;12.52;;
62179;SDS011;48172;53.374;10.722;2022-10-22T01:43:41;14.13;;;11.63;;
62179;SDS011;48172;53.374;10.722;2022-10-22T01:46:08;14.68;;;12.50;;
62179;SDS011;48172;53.374;10.722;2022-10-22T01:54:08;14.48;;;11.43;;
62179;SDS011;48172;53.374;10.722;2022-10-22T02:05:22;14.50;;;11.48;;
62179;SDS011;48172;53.374;10.722;2022-10-22T02:08:00;15.20;;;11.35;;
62179;SDS011;48172;53.374;10.722;2022-10-22T02:10:31;14.13;;;10.90;;
62179;SDS011;48172;53.374;10.722;2022-10-22T02:12:57;13.93;;;11.30;;
62179;SDS011;48172;53.374;10.722;2022-10-22T02:15:26;12.63;;;10.57;;
62179;SDS011;48172;53.374;10.722;2022-10-22T02:17:58;13.50;;;10.70;;
62179;SDS011;48172;53.374;10.722;2022-10-22T02:20:30;13.20;;;10.90;;
62179;SDS011;48172;53.374;10.722;2022-10-22T02:22:58;13.93;;;11.38;;
62179;SDS011;48172;53.374;10.722;2022-10-22T02:25:27;13.80;;;10.82;;
62179;SDS011;48172;53.374;10.722;2022-10-22T02:30:47;13.25;;;10.77;;
62179;SDS011;48172;53.374;10.722;2022-10-22T02:33:21;12.25;;;10.20;;
62179;SDS011;48172;53.374;10.722;2022-10-22T02:35:50;13.38;;;11.10;;
62179;SDS011;48172;53.374;10.722;2022-10-22T02:38:18;13.63;;;10.80;;
62179;SDS011;48172;53.374;10.722;2022-10-22T02:40:45;11.43;;;9.95;;
62179;SDS011;48172;53.374;10.722;2022-10-22T02:43:12;12.32;;;10.10;;
62179;SDS011;48172;53.374;10.722;2022-10-22T02:45:38;12.38;;;10.35;;
62179;SDS011;48172;53.374;10.722;2022-10-22T02:48:05;13.43;;;10.55;;
62179;SDS011;48172;53.374;10.722;2022-10-22T02:50:31;11.18;;;9.57;;
62179;SDS011;48172;53.374;10.722;2022-10-22T02:52:58;12.05;;;9.88;;
62179;SDS011;48172;53.374;10.722;2022-10-22T02:55:24;12.73;;;10.85;;
62179;SDS011;48172;53.374;10.722;2022-10-22T02:57:50;10.95;;;9.18;;
62179;SDS011;48172;53.374;10.722;2022-10-22T03:00:17;11.45;;;9.98;;
62179;SDS011;48172;53.374;10.722;2022-10-22T03:02:44;10.88;;;9.48;;
62179;SDS011;48172;53.374;10.722;2022-10-22T03:05:10;11.00;;;9.40;;
62179;SDS011;48172;53.374;10.722;2022-10-22T03:07:37;11.10;;;9.30;;
62179;SDS011;48172;53.374;10.722;2022-10-22T03:10:04;11.77;;;9.25;;
62179;SDS011;48172;53.374;10.722;2022-10-22T03:12:31;12.98;;;9.38;;
62179;SDS011;48172;53.374;10.722;2022-10-22T03:14:57;10.68;;;9.10;;
62179;SDS011;48172;53.374;10.722;2022-10-22T03:17:24;10.30;;;8.77;;
62179;SDS011;48172;53.374;10.722;2022-10-22T03:19:50;10.93;;;9.73;;
62179;SDS011;48172;53.374;10.722;2022-10-22T03:22:24;11.05;;;9.57;;
62179;SDS011;48172;53.374;10.722;2022-10-22T03:24:53;11.70;;;9.43;;
62179;SDS011;48172;53.374;10.722;2022-10-22T03:27:23;10.65;;;9.05;;
62179;SDS011;48172;53.374;10.722;2022-10-22T03:29:53;10.73;;;8.90;;
62179;SDS011;48172;53.374;10.722;2022-10-22T03:32:20;11.45;;;8.85;;
62179;SDS011;48172;53.374;10.722;2022-10-22T03:34:47;10.18;;;8.40;;
62179;SDS011;48172;53.374;10.722;2022-10-22T03:37:13;10.18;;;8.48;;
62179;SDS011;48172;53.374;10.722;2022-10-22T03:39:40;10.05;;;8.48;;
62179;SDS011;48172;53.374;10.722;2022-10-22T03:42:06;9.73;;;8.20;;
62179;SDS011;48172;53.374;10.722;2022-10-22T03:44:34;9.77;;;8.52;;
62179;SDS011;48172;53.374;10.722;2022-10-22T03:47:03;9.98;;;8.50;;
62179;SDS011;48172;53.374;10.722;2022-10-22T03:49:29;10.70;;;9.10;;
62179;SDS011;48172;53.374;10.722;2022-10-22T03:51:56;9.13;;;8.13;;
62179;SDS011;48172;53.374;10.722;2022-10-22T03:54:23;10.13;;;8.63;;
62179;SDS011;48172;53.374;10.722;2022-10-22T03:56:49;10.27;;;8.50;;
62179;SDS011;48172;53.374;10.722;2022-10-22T03:59:16;9.25;;;8.07;;
62179;SDS011;48172;53.374;10.722;2022-10-22T04:01:42;10.25;;;8.40;;
62179;SDS011;48172;53.374;10.722;2022-10-22T04:04:09;9.93;;;8.60;;
62179;SDS011;48172;53.374;10.722;2022-10-22T04:06:35;9.70;;;8.20;;
62179;SDS011;48172;53.374;10.722;2022-10-22T04:09:02;9.95;;;8.02;;
62179;SDS011;48172;53.374;10.722;2022-10-22T04:11:29;9.18;;;7.97;;
62179;SDS011;48172;53.374;10.722;2022-10-22T04:13:55;9.88;;;8.38;;
62179;SDS011;48172;53.374;10.722;2022-10-22T04:16:22;9.57;;;7.82;;
62179;SDS011;48172;53.374;10.722;2022-10-22T04:18:53;8.88;;;7.47;;
62179;SDS011;48172;53.374;10.722;2022-10-22T04:21:20;8.80;;;7.55;;
62179;SDS011;48172;53.374;10.722;2022-10-22T04:23:49;8.05;;;7.22;;
62179;SDS011;48172;53.374;10.722;2022-10-22T04:26:17;9.10;;;7.75;;
62179;SDS011;48172;53.374;10.722;2022-10-22T04:28:44;8.85;;;7.35;;
62179;SDS011;48172;53.374;10.722;2022-10-22T04:31:13;8.93;;;7.60;;
62179;SDS011;48172;53.374;10.722;2022-10-22T04:33:41;9.35;;;7.90;;
62179;SDS011;48172;53.374;10.722;2022-10-22T04:36:09;9.95;;;7.88;;
62179;SDS011;48172;53.374;10.722;2022-10-22T04:38:41;9.55;;;7.68;;
62179;SDS011;48172;53.374;10.722;2022-10-22T04:41:25;8.25;;;7.35;;
62179;SDS011;48172;53.374;10.722;2022-10-22T04:43:54;8.63;;;7.03;;
62179;SDS011;48172;53.374;10.722;2022-10-22T04:46:21;7.93;;;7.05;;
62179;SDS011;48172;53.374;10.722;2022-10-22T04:48:49;8.57;;;7.30;;
62179;SDS011;48172;53.374;10.722;2022-10-22T04:51:17;7.97;;;7.13;;
62179;SDS011;48172;53.374;10.722;2022-10-22T04:53:45;8.60;;;7.20;;
62179;SDS011;48172;53.374;10.722;2022-10-22T04:56:13;9.60;;;7.47;;
62179;SDS011;48172;53.374;10.722;2022-10-22T04:58:48;7.70;;;6.57;;
62179;SDS011;48172;53.374;10.722;2022-10-22T05:01:18;7.47;;;6.68;;
62179;SDS011;48172;53.374;10.722;2022-10-22T05:03:47;8.52;;;6.95;;
62179;SDS011;48172;53.374;10.722;2022-10-22T05:06:14;7.97;;;6.15;;
62179;SDS011;48172;53.374;10.722;2022-10-22T05:08:42;8.15;;;6.57;;
62179;SDS011;48172;53.374;10.722;2022-10-22T05:11:16;8.05;;;6.60;;
62179;SDS011;48172;53.374;10.722;2022-10-22T05:13:44;8.07;;;6.72;;
62179;SDS011;48172;53.374;10.722;2022-10-22T05:16:11;7.32;;;6.55;;
62179;SDS011;48172;53.374;10.722;2022-10-22T05:18:40;8.43;;;7.00;;
62179;SDS011;48172;53.374;10.722;2022-10-22T05:21:09;6.68;;;5.97;;
62179;SDS011;48172;53.374;10.722;2022-10-22T05:23:36;7.05;;;6.32;;
62179;SDS011;48172;53.374;10.722;2022-10-22T05:26:03;9.15;;;7.10;;
62179;SDS011;48172;53.374;10.722;2022-10-22T05:28:31;8.35;;;6.45;;
62179;SDS011;48172;53.374;10.722;2022-10-22T05:30:59;7.38;;;6.18;;
62179;SDS011;48172;53.374;10.722;2022-10-22T05:33:27;7.30;;;6.25;;
62179;SDS011;48172;53.374;10.722;2022-10-22T05:35:55;6.47;;;5.78;;
62179;SDS011;48172;53.374;10.722;2022-10-22T05:38:22;6.43;;;5.78;;
62179;SDS011;48172;53.374;10.722;2022-10-22T05:41:02;7.53;;;6.72;;
62179;SDS011;48172;53.374;10.722;2022-10-22T05:43:29;6.93;;;5.78;;
62179;SDS011;48172;53.374;10.722;2022-10-22T05:45:59;7.65;;;6.57;;
62179;SDS011;48172;53.374;10.722;2022-10-22T05:48:28;6.63;;;5.82;;
62179;SDS011;48172;53.374;10.722;2022-10-22T05:50:54;6.45;;;5.63;;
62179;SDS011;48172;53.374;10.722;2022-10-22T05:53:22;6.80;;;6.10;;
62179;SDS011;48172;53.374;10.722;2022-10-22T05:55:49;7.00;;;5.75;;
62179;SDS011;48172;53.374;10.722;2022-10-22T05:58:15;6.10;;;5.22;;
62179;SDS011;48172;53.374;10.722;2022-10-22T06:00:42;6.65;;;5.95;;
62179;SDS011;48172;53.374;10.722;2022-10-22T06:03:08;6.47;;;5.43;;
62179;SDS011;48172;53.374;10.722;2022-10-22T06:05:35;7.05;;;5.50;;
62179;SDS011;48172;53.374;10.722;2022-10-22T06:08:02;5.88;;;5.13;;
62179;SDS011;48172;53.374;10.722;2022-10-22T06:10:29;6.43;;;5.63;;
62179;SDS011;48172;53.374;10.722;2022-10-22T06:12:56;6.55;;;5.50;;
62179;SDS011;48172;53.374;10.722;2022-10-22T06:15:22;6.53;;;5.32;;
62179;SDS011;48172;53.374;10.722;2022-10-22T06:17:49;6.10;;;5.25;;
62179;SDS011;48172;53.374;10.722;2022-10-22T06:20:15;6.15;;;5.32;;
62179;SDS011;48172;53.374;10.722;2022-10-22T06:22:42;6.07;;;5.40;;
62179;SDS011;48172;53.374;10.722;2022-10-22T06:25:09;6.57;;;5.45;;
62179;SDS011;48172;53.374;10.722;2022-10-22T06:27:36;6.00;;;5.40;;
62179;SDS011;48172;53.374;10.722;2022-10-22T06:30:02;6.45;;;5.07;;
62179;SDS011;48172;53.374;10.722;2022-10-22T06:32:29;6.47;;;5.43;;
62179;SDS011;48172;53.374;10.722;2022-10-22T06:34:55;6.55;;;5.25;;
62179;SDS011;48172;53.374;10.722;2022-10-22T06:37:22;5.80;;;4.90;;
62179;SDS011;48172;53.374;10.722;2022-10-22T06:39:48;5.68;;;4.82;;
62179;SDS011;48172;53.374;10.722;2022-10-22T06:42:15;5.43;;;4.93;;
62179;SDS011;48172;53.374;10.722;2022-10-22T06:44:41;5.80;;;5.00;;
62179;SDS011;48172;53.374;10.722;2022-10-22T06:47:08;6.60;;;4.85;;
62179;SDS011;48172;53.374;10.722;2022-10-22T06:49:34;5.72;;;5.10;;
62179;SDS011;48172;53.374;10.722;2022-10-22T06:52:00;6.03;;;4.95;;
62179;SDS011;48172;53.374;10.722;2022-10-22T06:54:27;5.75;;;4.90;;
62179;SDS011;48172;53.374;10.722;2022-10-22T06:56:53;5.50;;;4.88;;
62179;SDS011;48172;53.374;10.722;2022-10-22T06:59:20;5.80;;;5.20;;
62179;SDS011;48172;53.374;10.722;2022-10-22T07:01:46;6.03;;;5.13;;
62179;SDS011;48172;53.374;10.722;2022-10-22T07:04:13;5.50;;;4.93;;
62179;SDS011;48172;53.374;10.722;2022-10-22T07:06:39;5.43;;;4.85;;
62179;SDS011;48172;53.374;10.722;2022-10-22T07:09:06;5.00;;;4.22;;
62179;SDS011;48172;53.374;10.722;2022-10-22T07:11:40;5.30;;;4.50;;
62179;SDS011;48172;53.374;10.722;2022-10-22T07:14:08;5.40;;;4.60;;
62179;SDS011;48172;53.374;10.722;2022-10-22T07:16:35;4.45;;;4.05;;
62179;SDS011;48172;53.374;10.722;2022-10-22T07:19:03;4.40;;;3.83;;
62179;SDS011;48172;53.374;10.722;2022-10-22T07:21:30;4.60;;;4.15;;
62179;SDS011;48172;53.374;10.722;2022-10-22T07:23:57;5.97;;;4.57;;
62179;SDS011;48172;53.374;10.722;2022-10-22T07:26:24;4.68;;;4.22;;
62179;SDS011;48172;53.374;10.722;2022-10-22T07:28:53;5.03;;;4.40;;
62179;SDS011;48172;53.374;10.722;2022-10-22T07:31:19;5.32;;;4.65;;
62179;SDS011;48172;53.374;10.722;2022-10-22T07:33:46;5.05;;;4.35;;
62179;SDS011;48172;53.374;10.722;2022-10-22T07:36:13;5.32;;;4.35;;
62179;SDS011;48172;53.374;10.722;2022-10-22T07:38:44;5.20;;;4.47;;
62179;SDS011;48172;53.374;10.722;2022-10-22T07:41:12;6.25;;;4.13;;
62179;SDS011;48172;53.374;10.722;2022-10-22T07:43:39;5.00;;;3.60;;
62179;SDS011;48172;53.374;10.722;2022-10-22T07:46:06;4.40;;;4.00;;
62179;SDS011;48172;53.374;10.722;2022-10-22T07:48:34;4.45;;;3.78;;
62179;SDS011;48172;53.374;10.722;2022-10-22T07:51:01;4.50;;;4.05;;
62179;SDS011;48172;53.374;10.722;2022-10-22T07:53:27;4.53;;;4.00;;
62179;SDS011;48172;53.374;10.722;2022-10-22T07:55:54;4.50;;;4.07;;
62179;SDS011;48172;53.374;10.722;2022-10-22T07:58:22;4.50;;;4.10;;
62179;SDS011;48172;53.374;10.722;2022-10-22T08:00:49;4.55;;;3.80;;
62179;SDS011;48172;53.374;10.722;2022-10-22T08:03:16;5.32;;;4.10;;
62179;SDS011;48172;53.374;10.722;2022-10-22T08:05:43;4.75;;;3.85;;
62179;SDS011;48172;53.374;10.722;2022-10-22T08:08:11;4.03;;;3.60;;
62179;SDS011;48172;53.374;10.722;2022-10-22T08:10:39;4.03;;;3.63;;
62179;SDS011;48172;53.374;10.722;2022-10-22T08:13:05;4.63;;;3.55;;
62179;SDS011;48172;53.374;10.722;2022-10-22T08:15:33;4.47;;;3.88;;
62179;SDS011;48172;53.374;10.722;2022-10-22T08:18:00;4.50;;;3.88;;
62179;SDS011;48172;53.374;10.722;2022-10-22T08:20:26;4.38;;;3.70;;
62179;SDS011;48172;53.374;10.722;2022-10-22T08:22:53;5.03;;;4.30;;
62179;SDS011;48172;53.374;10.722;2022-10-22T08:25:19;4.35;;;3.92;;
62179;SDS011;48172;53.374;10.722;2022-10-22T08:27:46;4.18;;;3.42;;
62179;SDS011;48172;53.374;10.722;2022-10-22T08:30:13;4.40;;;3.75;;
62179;SDS011;48172;53.374;10.722;2022-10-22T08:32:40;3.90;;;3.50;;
62179;SDS011;48172;53.374;10.722;2022-10-22T08:35:06;4.07;;;3.67;;
62179;SDS011;48172;53.374;10.722;2022-10-22T08:37:34;4.28;;;3.70;;
62179;SDS011;48172;53.374;10.722;2022-10-22T08:40:00;3.97;;;3.58;;
62179;SDS011;48172;53.374;10.722;2022-10-22T08:45:29;4.30;;;3.80;;
62179;SDS011;48172;53.374;10.722;2022-10-22T08:51:15;4.45;;;3.60;;
62179;SDS011;48172;53.374;10.722;2022-10-22T08:56:23;3.42;;;3.13;;
62179;SDS011;48172;53.374;10.722;2022-10-22T08:58:54;4.10;;;3.53;;
62179;SDS011;48172;53.374;10.722;2022-10-22T09:01:33;3.95;;;3.50;;
62179;SDS011;48172;53.374;10.722;2022-10-22T09:07:01;4.10;;;3.55;;
62179;SDS011;48172;53.374;10.722;2022-10-22T09:09:32;3.88;;;3.47;;
62179;SDS011;48172;53.374;10.722;2022-10-22T09:12:05;3.58;;;3.28;;
62179;SDS011;48172;53.374;10.722;2022-10-22T09:14:32;4.20;;;3.53;;
62179;SDS011;48172;53.374;10.722;2022-10-22T09:20:14;3.90;;;3.47;;
62179;SDS011;48172;53.374;10.722;2022-10-22T09:23:23;4.22;;;3.45;;
62179;SDS011;48172;53.374;10.722;2022-10-22T09:25:50;3.38;;;3.00;;
62179;SDS011;48172;53.374;10.722;2022-10-22T09:28:18;3.80;;;3.33;;
62179;SDS011;48172;53.374;10.722;2022-10-22T09:30:44;3.28;;;2.97;;
62179;SDS011;48172;53.374;10.722;2022-10-22T09:33:12;3.40;;;3.03;;
62179;SDS011;48172;53.374;10.722;2022-10-22T09:38:13;3.28;;;2.97;;
62179;SDS011;48172;53.374;10.722;2022-10-22T09:40:48;3.22;;;2.92;;
62179;SDS011;48172;53.374;10.722;2022-10-22T09:43:16;3.35;;;2.95;;
62179;SDS011;48172;53.374;10.722;2022-10-22T09:45:42;3.78;;;3.28;;
62179;SDS011;48172;53.374;10.722;2022-10-22T09:50:41;3.33;;;3.03;;
62179;SDS011;48172;53.374;10.722;2022-10-22T09:53:20;3.10;;;2.80;;
62179;SDS011;48172;53.374;10.722;2022-10-22T09:55:52;3.72;;;2.95;;
62179;SDS011;48172;53.374;10.722;2022-10-22T09:58:26;3.50;;;3.10;;
62179;SDS011;48172;53.374;10.722;2022-10-22T10:00:54;3.13;;;2.83;;
62179;SDS011;48172;53.374;10.722;2022-10-22T10:03:26;3.25;;;2.95;;
62179;SDS011;48172;53.374;10.722;2022-10-22T10:05:57;3.30;;;3.00;;
62179;SDS011;48172;53.374;10.722;2022-10-22T10:08:31;3.17;;;2.88;;
62179;SDS011;48172;53.374;10.722;2022-10-22T10:10:59;3.35;;;3.05;;
62179;SDS011;48172;53.374;10.722;2022-10-22T10:18:49;3.10;;;2.80;;
62179;SDS011;48172;53.374;10.722;2022-10-22T10:27:07;3.03;;;2.72;;
62179;SDS011;48172;53.374;10.722;2022-10-22T10:29:48;2.88;;;2.67;;
62179;SDS011;48172;53.374;10.722;2022-10-22T10:35:24;3.17;;;2.80;;
62179;SDS011;48172;53.374;10.722;2022-10-22T10:46:22;2.75;;;2.40;;
62179;SDS011;48172;53.374;10.722;2022-10-22T10:49:18;2.80;;;2.50;;
62179;SDS011;48172;53.374;10.722;2022-10-22T11:00:17;3.00;;;2.30;;
62179;SDS011;48172;53.374;10.722;2022-10-22T11:05:57;3.20;;;2.90;;
62179;SDS011;48172;53.374;10.722;2022-10-22T11:08:37;2.80;;;2.50;;
62179;SDS011;48172;53.374;10.722;2022-10-22T11:11:21;2.60;;;2.40;;
62179;SDS011;48172;53.374;10.722;2022-10-22T11:13:58;2.72;;;2.50;;
62179;SDS011;48172;53.374;10.722;2022-10-22T11:21:46;2.65;;;2.35;;
62179;SDS011;48172;53.374;10.722;2022-10-22T11:29:27;2.70;;;2.50;;
62179;SDS011;48172;53.374;10.722;2022-10-22T11:31:58;2.85;;;2.55;;
62179;SDS011;48172;53.374;10.722;2022-10-22T11:34:35;2.72;;;2.53;;
62179;SDS011;48172;53.374;10.722;2022-10-22T11:37:15;2.97;;;2.63;;
62179;SDS011;48172;53.374;10.722;2022-10-22T11:39:50;2.50;;;2.30;;
62179;SDS011;48172;53.374;10.722;2022-10-22T11:44:48;2.45;;;2.25;;
62179;SDS011;48172;53.374;10.722;2022-10-22T11:47:27;2.38;;;2.17;;
62179;SDS011;48172;53.374;10.722;2022-10-22T11:50:18;2.72;;;2.42;;
62179;SDS011;48172;53.374;10.722;2022-10-22T11:55:48;2.92;;;2.40;;
62179;SDS011;48172;53.374;10.722;2022-10-22T11:58:59;2.90;;;2.63;;
62179;SDS011;48172;53.374;10.722;2022-10-22T12:03:43;2.35;;;2.03;;
62179;SDS011;48172;53.374;10.722;2022-10-22T12:16:24;2.33;;;2.03;;
62179;SDS011;48172;53.374;10.722;2022-10-22T12:19:17;2.45;;;2.25;;
62179;SDS011;48172;53.374;10.722;2022-10-22T12:24:34;2.30;;;2.10;;
62179;SDS011;48172;53.374;10.722;2022-10-22T12:27:03;2.25;;;1.90;;
62179;SDS011;48172;53.374;10.722;2022-10-22T12:29:30;2.60;;;2.20;;
62179;SDS011;48172;53.374;10.722;2022-10-22T12:32:01;1.95;;;1.77;;
62179;SDS011;48172;53.374;10.722;2022-10-22T12:34:29;2.65;;;1.63;;
62179;SDS011;48172;53.374;10.722;2022-10-22T12:36:56;2.20;;;1.98;;
62179;SDS011;48172;53.374;10.722;2022-10-22T12:39:25;2.08;;;1.80;;
62179;SDS011;48172;53.374;10.722;2022-10-22T12:41:53;2.10;;;1.90;;
62179;SDS011;48172;53.374;10.722;2022-10-22T12:44:20;2.40;;;2.20;;
62179;SDS011;48172;53.374;10.722;2022-10-22T12:46:46;2.17;;;1.98;;
62179;SDS011;48172;53.374;10.722;2022-10-22T12:49:21;2.15;;;1.90;;
62179;SDS011;48172;53.374;10.722;2022-10-22T12:51:51;2.75;;;2.13;;
62179;SDS011;48172;53.374;10.722;2022-10-22T12:54:21;1.98;;;1.77;;
62179;SDS011;48172;53.374;10.722;2022-10-22T12:56:53;2.40;;;1.83;;
62179;SDS011;48172;53.374;10.722;2022-10-22T12:59:22;2.08;;;1.70;;
62179;SDS011;48172;53.374;10.722;2022-10-22T13:01:52;2.10;;;1.90;;
62179;SDS011;48172;53.374;10.722;2022-10-22T13:04:20;2.10;;;1.80;;
62179;SDS011;48172;53.374;10.722;2022-10-22T13:09:38;2.22;;;2.03;;
62179;SDS011;48172;53.374;10.722;2022-10-22T13:12:07;2.20;;;1.67;;
62179;SDS011;48172;53.374;10.722;2022-10-22T13:14:39;2.67;;;2.00;;
62179;SDS011;48172;53.374;10.722;2022-10-22T13:27:41;3.38;;;1.80;;
62179;SDS011;48172;53.374;10.722;2022-10-22T13:30:20;1.98;;;1.60;;
62179;SDS011;48172;53.374;10.722;2022-10-22T13:33:31;2.53;;;1.65;;
62179;SDS011;48172;53.374;10.722;2022-10-22T13:35:55;2.35;;;1.80;;
62179;SDS011;48172;53.374;10.722;2022-10-22T13:38:22;4.85;;;1.70;;
62179;SDS011;48172;53.374;10.722;2022-10-22T13:40:50;3.45;;;2.00;;
62179;SDS011;48172;53.374;10.722;2022-10-22T13:43:17;1.92;;;1.67;;
62179;SDS011;48172;53.374;10.722;2022-10-22T13:45:44;7.45;;;5.95;;
62179;SDS011;48172;53.374;10.722;2022-10-22T13:48:14;5.20;;;4.70;;
62179;SDS011;48172;53.374;10.722;2022-10-22T13:50:43;7.25;;;6.65;;
62179;SDS011;48172;53.374;10.722;2022-10-22T13:53:20;8.38;;;7.55;;
62179;SDS011;48172;53.374;10.722;2022-10-22T13:55:48;8.45;;;7.65;;
62179;SDS011;48172;53.374;10.722;2022-10-22T13:58:16;27.65;;;23.58;;
62179;SDS011;48172;53.374;10.722;2022-10-22T14:00:45;36.85;;;30.52;;
62179;SDS011;48172;53.374;10.722;2022-10-22T14:03:15;37.67;;;30.40;;
62179;SDS011;48172;53.374;10.722;2022-10-22T14:05:47;35.97;;;28.73;;
62179;SDS011;48172;53.374;10.722;2022-10-22T14:08:14;35.63;;;28.20;;
62179;SDS011;48172;53.374;10.722;2022-10-22T14:10:44;34.13;;;28.05;;
62179;SDS011;48172;53.374;10.722;2022-10-22T14:13:11;32.15;;;26.85;;
62179;SDS011;48172;53.374;10.722;2022-10-22T14:15:39;31.65;;;25.33;;
62179;SDS011;48172;53.374;10.722;2022-10-22T14:18:07;31.67;;;25.83;;
62179;SDS011;48172;53.374;10.722;2022-10-22T14:20:39;31.08;;;25.25;;
62179;SDS011;48172;53.374;10.722;2022-10-22T14:23:20;30.67;;;24.20;;
62179;SDS011;48172;53.374;10.722;2022-10-22T14:25:49;32.10;;;24.13;;
62179;SDS011;48172;53.374;10.722;2022-10-22T14:28:18;29.67;;;22.98;;
62179;SDS011;48172;53.374;10.722;2022-10-22T14:30:45;25.30;;;21.90;;
62179;SDS011;48172;53.374;10.722;2022-10-22T14:33:12;24.85;;;21.67;;
62179;SDS011;48172;53.374;10.722;2022-10-22T14:35:44;25.38;;;21.42;;
62179;SDS011;48172;53.374;10.722;2022-10-22T14:38:12;25.38;;;20.75;;
62179;SDS011;48172;53.374;10.722;2022-10-22T14:40:39;22.70;;;19.85;;
62179;SDS011;48172;53.374;10.722;2022-10-22T14:43:41;23.27;;;18.48;;
62179;SDS011;48172;53.374;10.722;2022-10-22T14:46:00;26.85;;;18.33;;
62179;SDS011;48172;53.374;10.722;2022-10-22T14:48:27;24.00;;;18.10;;
62179;SDS011;48172;53.374;10.722;2022-10-22T14:50:53;22.48;;;16.80;;
62179;SDS011;48172;53.374;10.722;2022-10-22T14:53:20;22.95;;;17.33;;
62179;SDS011;48172;53.374;10.722;2022-10-22T14:55:46;19.73;;;17.02;;
62179;SDS011;48172;53.374;10.722;2022-10-22T14:58:14;17.73;;;15.82;;
62179;SDS011;48172;53.374;10.722;2022-10-22T15:00:41;17.52;;;14.43;;
62179;SDS011;48172;53.374;10.722;2022-10-22T15:03:09;17.90;;;14.65;;
62179;SDS011;48172;53.374;10.722;2022-10-22T15:05:38;17.00;;;13.90;;
62179;SDS011;48172;53.374;10.722;2022-10-22T15:08:10;21.58;;;16.88;;
62179;SDS011;48172;53.374;10.722;2022-10-22T15:10:37;49.03;;;36.38;;
62179;SDS011;48172;53.374;10.722;2022-10-22T15:13:04;90.72;;;65.05;;
62179;SDS011;48172;53.374;10.722;2022-10-22T15:15:30;149.55;;;101.07;;
62179;SDS011;48172;53.374;10.722;2022-10-22T15:18:04;167.35;;;107.78;;
62179;SDS011;48172;53.374;10.722;2022-10-22T15:20:30;166.07;;;108.40;;
62179;SDS011;48172;53.374;10.722;2022-10-22T15:22:57;155.95;;;105.47;;
62179;SDS011;48172;53.374;10.722;2022-10-22T15:25:23;150.48;;;99.40;;
62179;SDS011;48172;53.374;10.722;2022-10-22T15:27:50;151.70;;;103.68;;
62179;SDS011;48172;53.374;10.722;2022-10-22T15:30:20;146.05;;;99.78;;
62179;SDS011;48172;53.374;10.722;2022-10-22T15:32:46;141.23;;;98.30;;
62179;SDS011;48172;53.374;10.722;2022-10-22T15:35:13;144.05;;;97.53;;
62179;SDS011;48172;53.374;10.722;2022-10-22T15:37:39;137.07;;;95.32;;
62179;SDS011;48172;53.374;10.722;2022-10-22T15:40:06;135.93;;;92.85;;
62179;SDS011;48172;53.374;10.722;2022-10-22T15:42:33;136.07;;;91.00;;
62179;SDS011;48172;53.374;10.722;2022-10-22T15:45:00;127.30;;;87.32;;
62179;SDS011;48172;53.374;10.722;2022-10-22T15:47:27;123.25;;;87.30;;
62179;SDS011;48172;53.374;10.722;2022-10-22T15:49:55;122.97;;;83.68;;
62179;SDS011;48172;53.374;10.722;2022-10-22T15:52:21;120.57;;;84.13;;
62179;SDS011;48172;53.374;10.722;2022-10-22T15:54:48;111.60;;;78.78;;
62179;SDS011;48172;53.374;10.722;2022-10-22T15:57:14;128.02;;;90.10;;
62179;SDS011;48172;53.374;10.722;2022-10-22T15:59:41;144.63;;;102.05;;
62179;SDS011;48172;53.374;10.722;2022-10-22T16:02:08;126.97;;;90.78;;
62179;SDS011;48172;53.374;10.722;2022-10-22T16:04:36;135.88;;;98.03;;
62179;SDS011;48172;53.374;10.722;2022-10-22T16:07:03;131.95;;;92.13;;
62179;SDS011;48172;53.374;10.722;2022-10-22T16:09:30;130.23;;;94.28;;
62179;SDS011;48172;53.374;10.722;2022-10-22T16:11:56;127.03;;;92.50;;
62179;SDS011;48172;53.374;10.722;2022-10-22T16:14:23;124.68;;;89.55;;
62179;SDS011;48172;53.374;10.722;2022-10-22T16:16:50;122.45;;;87.75;;
62179;SDS011;48172;53.374;10.722;2022-10-22T16:19:19;121.45;;;86.90;;
62179;SDS011;48172;53.374;10.722;2022-10-22T16:21:49;123.45;;;88.30;;
62179;SDS011;48172;53.374;10.722;2022-10-22T16:24:19;119.35;;;85.88;;
62179;SDS011;48172;53.374;10.722;2022-10-22T16:26:46;116.65;;;86.47;;
62179;SDS011;48172;53.374;10.722;2022-10-22T16:29:14;112.75;;;84.25;;
62179;SDS011;48172;53.374;10.722;2022-10-22T16:31:40;118.72;;;87.47;;
62179;SDS011;48172;53.374;10.722;2022-10-22T16:34:08;121.00;;;87.45;;
62179;SDS011;48172;53.374;10.722;2022-10-22T16:36:35;111.55;;;82.97;;
62179;SDS011;48172;53.374;10.722;2022-10-22T16:39:03;117.65;;;85.45;;
62179;SDS011;48172;53.374;10.722;2022-10-22T16:41:30;116.70;;;85.25;;
62179;SDS011;48172;53.374;10.722;2022-10-22T16:44:02;111.00;;;84.47;;
62179;SDS011;48172;53.374;10.722;2022-10-22T16:46:31;113.75;;;81.82;;
62179;SDS011;48172;53.374;10.722;2022-10-22T16:48:58;109.97;;;80.10;;